Time;durP1;ratioP1;P1;durP2;ratioP2;P2;SDS_P1;SDS_P2;PMS_P1;PMS_P2;Temp;Humidity;BMP_temperature;BMP_pressure;BME280_temperature;BME280_humidity;BME280_pressure;Samples;Min_cycle;Max_cycle;Signal;HPM_P1;HPM_P2
2022/05/23 00:02:24;;;;;;;2.58;1.35;;;;;;;20.75;55.47;98910.25;4939847;29;20078;-85
2022/05/23 00:04:49;;;;;;;4.32;1.38;;;;;;;20.73;55.32;98896.91;4923977;29;20024;-85
2022/05/23 00:07:23;;;;;;;1.70;1.10;;;;;;;20.70;56.06;98904.69;4939612;29;20481;-86
2022/05/23 00:09:50;;;;;;;1.80;1.30;;;;;;;20.72;56.03;98899.84;4923768;29;20035;-86
2022/05/23 00:12:15;;;;;;;1.92;1.30;;;;;;;20.69;56.00;98906.59;4928201;28;20023;-86
2022/05/23 00:14:42;;;;;;;2.22;1.20;;;;;;;20.67;56.10;98905.97;4942506;28;20023;-85
2022/05/23 00:17:09;;;;;;;1.38;1.27;;;;;;;20.69;55.62;98903.88;4942856;28;20061;-86
2022/05/23 00:19:35;;;;;;;3.30;1.30;;;;;;;20.67;55.57;98907.88;4942599;28;20058;-87
2022/05/23 00:22:00;;;;;;;3.28;1.20;;;;;;;20.67;56.37;98913.31;4942544;28;20444;-87
2022/05/23 00:24:25;;;;;;;3.00;1.13;;;;;;;20.69;55.98;98922.06;4958079;28;20065;-85
2022/05/23 00:26:51;;;;;;;1.33;1.10;;;;;;;20.67;56.07;98916.03;4958391;28;20074;-86
2022/05/23 00:29:17;;;;;;;2.15;1.30;;;;;;;20.67;55.64;98907.88;4942484;28;20081;-86
2022/05/23 00:37:10;;;;;;;2.28;1.02;;;;;;;20.56;56.13;98895.88;4961192;28;20057;-86
2022/05/23 00:39:35;;;;;;;1.40;1.05;;;;;;;20.60;57.13;98898.97;4942419;28;20465;-85
2022/05/23 00:44:45;;;;;;;3.10;1.23;;;;;;;20.60;55.69;98905.25;4960060;28;20042;-85
2022/05/23 00:47:22;;;;;;;1.70;1.05;;;;;;;20.59;56.63;98909.00;4941762;28;20030;-85
2022/05/23 00:49:48;;;;;;;1.63;1.10;;;;;;;20.60;56.07;98894.38;4941716;28;20030;-85
2022/05/23 00:52:36;;;;;;;1.20;1.10;;;;;;;20.59;56.37;98892.72;4941968;28;20027;-85
2022/05/23 00:55:04;;;;;;;1.65;1.10;;;;;;;20.59;56.09;98891.88;4941907;28;20054;-85
2022/05/23 00:57:40;;;;;;;2.63;1.20;;;;;;;20.59;56.24;98889.16;4941800;28;20038;-85
2022/05/23 01:00:15;;;;;;;2.10;1.15;;;;;;;20.57;55.65;98894.81;4941961;28;20147;-85
2022/05/23 01:02:43;;;;;;;2.83;1.20;;;;;;;20.62;56.04;98891.44;4941412;28;20027;-85
2022/05/23 01:05:09;;;;;;;2.42;1.02;;;;;;;20.66;56.61;98889.91;4937050;29;20098;-85
2022/05/23 01:07:35;;;;;;;1.60;1.10;;;;;;;20.63;55.45;98890.38;4922464;29;20086;-85
2022/05/23 01:10:00;;;;;;;2.45;1.20;;;;;;;20.60;56.06;98883.50;4922408;29;20027;-85
2022/05/23 01:12:27;;;;;;;1.33;1.10;;;;;;;20.58;55.84;98873.94;4922571;29;20079;-85
2022/05/23 01:14:55;;;;;;;1.63;1.10;;;;;;;20.56;55.83;98873.31;4938477;29;20023;-86
2022/05/23 01:17:22;;;;;;;1.27;0.98;;;;;;;20.60;55.59;98879.97;4938346;29;20462;-85
2022/05/23 01:19:49;;;;;;;1.73;1.30;;;;;;;20.55;56.18;98868.94;4922461;29;20093;-85
2022/05/23 01:22:45;;;;;;;1.30;1.15;;;;;;;20.54;56.27;98872.72;4922505;29;20050;-85
2022/05/23 01:25:32;;;;;;;1.63;1.10;;;;;;;20.53;56.31;98865.63;4938062;29;20130;-85
2022/05/23 01:27:57;;;;;;;1.88;1.40;;;;;;;20.50;56.60;98871.53;4938285;29;20023;-85
2022/05/23 01:30:22;;;;;;;3.63;1.40;;;;;;;20.45;56.72;98866.78;4938332;29;20378;-85
2022/05/23 01:32:48;;;;;;;2.35;1.45;;;;;;;20.46;56.28;98859.47;4935524;29;20363;-85
2022/05/23 01:35:13;;;;;;;1.92;1.25;;;;;;;20.47;56.82;98866.56;4939505;29;20212;-85
2022/05/23 01:37:39;;;;;;;2.88;1.10;;;;;;;20.49;56.37;98865.25;4928525;29;20038;-85
2022/05/23 01:40:07;;;;;;;1.30;1.20;;;;;;;20.51;56.37;98862.31;4928637;29;20031;-85
2022/05/23 01:42:33;;;;;;;1.42;1.33;;;;;;;20.52;56.53;98861.25;4928479;29;20474;-85
2022/05/23 01:44:58;;;;;;;2.35;1.10;;;;;;;20.46;56.44;98864.91;4928460;29;20030;-85
2022/05/23 01:47:24;;;;;;;1.05;1.00;;;;;;;20.46;57.02;98859.47;4944514;28;20047;-85
2022/05/23 01:49:49;;;;;;;1.63;1.20;;;;;;;20.47;56.45;98859.22;4944220;29;20035;-85
2022/05/23 01:52:14;;;;;;;2.33;1.30;;;;;;;20.43;57.19;98848.00;4944305;28;20031;-85
2022/05/23 01:54:40;;;;;;;3.17;1.30;;;;;;;20.45;56.85;98846.94;4928443;29;20082;-85
2022/05/23 01:57:07;;;;;;;1.63;1.20;;;;;;;20.46;57.29;98840.44;4928461;29;20492;-85
2022/05/23 02:02:17;;;;;;;2.30;1.10;;;;;;;20.47;56.49;98833.97;4947105;28;20178;-84
2022/05/23 02:04:42;;;;;;;2.28;1.30;;;;;;;20.47;56.70;98836.66;4928396;29;20118;-86
2022/05/23 02:07:08;;;;;;;1.75;1.23;;;;;;;20.44;56.10;98829.81;4944319;29;20114;-85
2022/05/23 02:09:34;;;;;;;2.33;1.30;;;;;;;20.43;56.75;98830.88;4928471;29;20038;-85
2022/05/23 02:12:00;;;;;;;1.48;1.10;;;;;;;20.42;56.98;98829.22;4928417;28;20034;-85
2022/05/23 02:14:27;;;;;;;1.70;1.20;;;;;;;20.40;56.92;98823.19;4928271;29;20031;-86
2022/05/23 02:16:53;;;;;;;2.60;1.30;;;;;;;20.39;56.33;98819.63;4944194;29;20035;-86
2022/05/23 02:19:18;;;;;;;1.40;1.30;;;;;;;20.38;56.93;98814.41;4928113;28;20029;-86
2022/05/23 02:21:43;;;;;;;4.05;1.33;;;;;;;20.38;56.79;98812.53;4928538;29;20035;-85
2022/05/23 02:24:09;;;;;;;1.38;1.20;;;;;;;20.39;56.57;98818.78;4927911;29;20039;-86
2022/05/23 02:26:34;;;;;;;2.80;1.30;;;;;;;20.38;56.74;98819.84;4928177;29;20031;-85
2022/05/23 02:29:00;;;;;;;1.98;1.20;;;;;;;20.37;56.94;98815.47;4944120;29;20466;-85
2022/05/23 02:31:27;;;;;;;1.52;1.30;;;;;;;20.37;57.13;98813.56;4928249;29;20389;-86
2022/05/23 02:33:52;;;;;;;1.50;1.20;;;;;;;20.38;56.89;98811.69;4943729;29;20027;-87
2022/05/23 02:36:18;;;;;;;2.95;1.42;;;;;;;20.38;57.52;98808.97;4943320;29;20427;-86
2022/05/23 02:38:43;;;;;;;1.88;1.45;;;;;;;20.34;57.66;98796.91;4928295;28;20047;-86
2022/05/23 02:41:08;;;;;;;3.15;1.40;;;;;;;;;;4944365;29;20027;-86
2022/05/23 02:43:34;;;;;;;1.85;1.35;;;;;;;20.32;57.62;98791.69;4944228;29;20099;-86
2022/05/23 02:45:59;;;;;;;1.58;1.45;;;;;;;20.29;58.15;98796.75;4944632;29;20501;-87
2022/05/23 02:48:24;;;;;;;5.07;1.30;;;;;;;20.28;58.05;98793.19;4941418;29;20031;-86
2022/05/23 02:50:50;;;;;;;2.72;1.27;;;;;;;20.24;58.48;98781.13;4941142;29;20035;-86
2022/05/23 02:53:15;;;;;;;2.53;1.50;;;;;;;20.27;59.17;98777.13;4925202;29;20023;-87
2022/05/23 02:55:40;;;;;;;1.60;1.25;;;;;;;20.26;58.42;98770.06;4925152;29;20470;-86
2022/05/23 02:58:07;;;;;;;1.30;1.10;;;;;;;20.27;59.08;98763.56;4925166;29;20031;-86
2022/05/23 03:00:34;;;;;;;1.50;1.10;;;;;;;20.23;58.69;98756.94;4925306;29;20023;-86
2022/05/23 03:03:03;;;;;;;1.60;1.30;;;;;;;20.25;58.84;98749.38;4941034;29;20080;-87
2022/05/23 03:05:32;;;;;;;;;;;;;;;20.25;58.29;98744.78;4941635;29;20023;-86
2022/05/23 03:07:57;;;;;;;2.33;1.40;;;;;;;20.23;58.34;98737.94;4940883;29;20345;-86
2022/05/23 03:10:22;;;;;;;2.33;1.40;;;;;;;20.21;59.17;98729.19;4924892;29;20027;-87
2022/05/23 03:12:48;;;;;;;2.63;1.50;;;;;;;20.20;58.77;98722.09;4940738;29;20075;-86
2022/05/23 03:15:13;;;;;;;3.25;1.63;;;;;;;20.18;59.14;98721.50;4940956;29;20031;-86
2022/05/23 03:17:39;;;;;;;2.97;1.50;;;;;;;20.15;58.68;98720.06;4924899;29;20023;-87
2022/05/23 03:20:05;;;;;;;1.70;1.40;;;;;;;20.11;59.14;98717.00;4923843;29;20035;-86
2022/05/23 03:27:59;;;;;;;3.35;1.75;;;;;;;19.99;59.09;98696.28;4943075;29;20492;-86
2022/05/23 03:30:25;;;;;;;2.03;1.52;;;;;;;19.98;59.65;98675.63;4924505;29;20027;-85
2022/05/23 03:32:51;;;;;;;2.60;1.70;;;;;;;20.01;59.15;98677.91;4940162;29;20074;-85
2022/05/23 03:35:16;;;;;;;2.75;1.90;;;;;;;19.99;59.50;98663.72;4940159;29;20038;-85
2022/05/23 03:37:42;;;;;;;2.58;1.80;;;;;;;19.95;58.80;98665.25;4924338;29;20039;-85
2022/05/23 03:40:08;;;;;;;2.88;2.28;;;;;;;19.98;58.75;98652.03;4924203;29;20090;-85
2022/05/23 03:42:34;;;;;;;4.22;2.40;;;;;;;19.94;58.55;98653.56;4923967;29;20636;-85
2022/05/23 03:44:59;;;;;;;4.40;2.00;;;;;;;19.91;59.34;98650.47;4939956;29;20088;-85
2022/05/23 03:47:25;;;;;;;3.38;2.30;;;;;;;19.91;58.82;98639.63;4924015;29;20069;-85
2022/05/23 03:49:50;;;;;;;3.35;2.10;;;;;;;19.88;58.96;98631.94;4939633;29;20023;-85
2022/05/23 03:52:15;;;;;;;3.83;2.10;;;;;;;19.88;59.16;98627.34;4939692;29;20114;-85
2022/05/23 03:54:41;;;;;;;3.05;2.08;;;;;;;19.86;59.00;98623.19;4939735;29;20035;-86
2022/05/23 03:57:06;;;;;;;2.83;1.70;;;;;;;19.89;59.03;98631.72;4923872;29;20038;-85
2022/05/23 03:59:32;;;;;;;2.83;1.98;;;;;;;19.88;59.69;98619.22;4939295;29;20034;-85
2022/05/23 04:01:58;;;;;;;4.50;2.00;;;;;;;19.92;59.58;98619.56;4923718;29;20024;-85
2022/05/23 04:04:24;;;;;;;4.63;2.40;;;;;;;19.90;59.62;98617.09;4939608;29;20031;-86
2022/05/23 04:06:49;;;;;;;4.07;2.00;;;;;;;19.90;58.69;98619.81;4923568;29;20023;-84
2022/05/23 04:09:15;;;;;;;3.05;2.00;;;;;;;19.93;58.84;98618.50;4939495;29;20027;-84
2022/05/23 04:11:41;;;;;;;3.33;1.90;;;;;;;19.92;59.50;98617.69;4939497;29;20042;-84
2022/05/23 04:14:06;;;;;;;3.80;2.38;;;;;;;19.91;58.54;98618.75;4939268;29;20034;-84
2022/05/23 04:16:31;;;;;;;3.90;1.98;;;;;;;19.91;59.14;98609.78;4939275;29;20085;-84
2022/05/23 04:18:57;;;;;;;5.78;2.30;;;;;;;19.91;59.21;98613.31;4923394;29;20027;-84
2022/05/23 04:21:23;;;;;;;4.28;1.75;;;;;;;19.92;58.83;98612.25;4939195;29;20109;-84
2022/05/23 04:23:48;;;;;;;3.83;2.42;;;;;;;19.96;59.18;98608.03;4939089;29;20398;-85
2022/05/23 04:26:14;;;;;;;4.32;2.42;;;;;;;19.91;58.60;98607.06;4939010;29;20058;-84
2022/05/23 04:28:39;;;;;;;3.83;2.17;;;;;;;19.88;59.04;98602.09;4939092;29;20113;-84
2022/05/23 04:31:05;;;;;;;2.88;1.98;;;;;;;19.89;59.06;98606.47;4923036;29;20474;-84
2022/05/23 04:36:15;;;;;;;2.75;1.83;;;;;;;19.82;59.82;98592.97;4956226;29;20505;-84
2022/05/23 04:38:40;;;;;;;3.63;1.80;;;;;;;19.85;59.65;98583.53;4938939;29;20039;-84
2022/05/23 04:41:06;;;;;;;3.63;2.10;;;;;;;19.75;59.68;98586.81;4939078;29;20087;-84
2022/05/23 04:43:32;;;;;;;4.78;2.25;;;;;;;19.76;60.47;98583.88;4943299;28;20030;-84
2022/05/23 04:45:57;;;;;;;3.25;2.00;;;;;;;19.70;60.29;98579.38;4941816;28;20022;-84
2022/05/23 04:51:20;;;;;;;3.33;2.10;;;;;;;19.78;60.23;98565.47;4942364;28;20069;-84
2022/05/23 04:53:46;;;;;;;3.63;1.98;;;;;;;19.81;59.69;98562.28;4937996;28;20315;-84
2022/05/23 04:56:12;;;;;;;4.50;2.17;;;;;;;19.72;59.79;98554.72;4937496;28;20035;-84
2022/05/23 04:58:37;;;;;;;6.63;2.67;;;;;;;19.71;60.48;98553.06;4957797;28;20037;-81
2022/05/23 05:01:03;;;;;;;7.40;2.13;;;;;;;19.61;60.65;98553.63;4957609;28;20118;-80
2022/05/23 05:03:28;;;;;;;3.47;2.00;;;;;;;19.58;59.96;98550.56;4975166;28;20109;-80
2022/05/23 05:05:53;;;;;;;2.20;1.70;;;;;;;19.64;60.39;98550.47;4974750;28;20054;-82
2022/05/23 05:08:19;;;;;;;6.53;2.30;;;;;;;19.74;60.28;98552.59;4956250;28;20042;-82
2022/05/23 05:10:45;;;;;;;4.32;2.38;;;;;;;19.70;59.17;98538.69;4973330;28;20034;-81
2022/05/23 05:13:10;;;;;;;3.20;2.47;;;;;;;19.77;60.28;98530.44;4974795;28;20038;-81
2022/05/23 05:15:36;;;;;;;4.82;3.00;;;;;;;19.74;60.03;98522.75;4957458;28;20035;-81
2022/05/23 05:18:01;;;;;;;7.05;3.10;;;;;;;19.79;60.40;98522.88;4957231;28;20026;-82
2022/05/23 05:20:28;;;;;;;5.30;3.08;;;;;;;19.78;59.87;98515.81;4957250;28;20031;-81
2022/05/23 05:22:53;;;;;;;9.60;3.30;;;;;;;19.80;59.06;98514.50;4957567;28;20082;-81
2022/05/23 05:25:19;;;;;;;4.53;3.30;;;;;;;19.80;59.11;98514.50;4956920;28;20039;-81
2022/05/23 05:27:45;;;;;;;5.25;2.83;;;;;;;19.77;59.93;98514.16;4968065;28;20027;-82
2022/05/23 05:30:13;;;;;;;5.80;2.75;;;;;;;19.76;59.61;98507.91;4952416;28;20026;-81
2022/05/23 05:32:58;;;;;;;4.93;2.50;;;;;;;19.81;59.98;98524.31;4937987;29;20062;-81
2022/05/23 05:35:31;;;;;;;4.72;2.30;;;;;;;19.81;59.44;98513.47;4942915;28;20358;-81
2022/05/23 05:38:02;;;;;;;5.03;2.50;;;;;;;19.84;60.69;98511.34;4938686;28;20027;-81
2022/05/23 05:40:29;;;;;;;3.35;2.38;;;;;;;19.90;59.91;98510.44;4973337;28;20486;-81
2022/05/23 05:42:58;;;;;;;3.15;2.65;;;;;;;19.89;59.99;98517.75;4973526;28;20031;-84
2022/05/23 05:45:29;;;;;;;5.10;2.17;;;;;;;19.94;59.74;98517.88;4937931;28;20481;-84
2022/05/23 05:47:54;;;;;;;5.03;2.55;;;;;;;19.97;60.53;98514.69;4937297;28;20461;-84
2022/05/23 05:50:33;;;;;;;4.25;2.10;;;;;;;20.01;60.87;98517.75;4954505;28;20027;-84
2022/05/23 05:53:03;;;;;;;4.05;2.30;;;;;;;20.04;60.66;98511.84;4938655;28;20022;-83
2022/05/23 05:55:28;;;;;;;4.55;2.40;;;;;;;20.02;60.51;98508.56;4952606;28;20038;-84
2022/05/23 05:57:54;;;;;;;5.47;2.50;;;;;;;20.01;59.96;98512.34;4937792;28;20019;-84
2022/05/23 06:00:20;;;;;;;3.78;2.30;;;;;;;20.03;60.82;98502.91;4956308;28;20026;-83
2022/05/23 06:02:45;;;;;;;73.75;11.07;;;;;;;20.07;60.75;98490.50;4939827;28;20028;-81
2022/05/23 06:05:10;;;;;;;13.32;4.05;;;;;;;20.17;60.07;98503.47;4937260;28;20434;-81
2022/05/23 06:13:04;;;;;;;12.93;3.35;;;;;;;20.26;60.79;98493.91;4951661;28;20126;-84
2022/05/23 06:15:30;;;;;;;28.40;5.50;;;;;;;20.33;60.31;98496.50;4940317;28;20114;-82
2022/05/23 06:17:55;;;;;;;5.65;2.80;;;;;;;20.38;61.44;98492.06;4934626;28;20027;-81
2022/05/23 06:20:23;;;;;;;9.45;3.17;;;;;;;20.40;60.92;98497.28;4939458;28;20019;-81
2022/05/23 06:22:50;;;;;;;5.90;2.92;;;;;;;20.43;60.95;98492.19;4938994;29;20485;-82
2022/05/23 06:25:15;;;;;;;4.57;2.25;;;;;;;20.42;60.64;98490.53;4945265;28;20051;-83
2022/05/23 06:27:40;;;;;;;16.10;3.40;;;;;;;20.35;60.70;98481.66;4943238;28;20033;-82
2022/05/23 06:30:07;;;;;;;5.50;2.28;;;;;;;20.34;61.08;98488.16;4954746;28;20495;-83
2022/05/23 06:32:33;;;;;;;2.88;1.92;;;;;;;20.31;60.99;98482.34;4952855;28;20023;-82
2022/05/23 06:34:58;;;;;;;3.30;2.08;;;;;;;20.31;60.70;98479.63;4957742;28;20038;-83
2022/05/23 06:37:24;;;;;;;2.80;1.80;;;;;;;20.31;61.05;98479.63;4958786;28;20050;-82
2022/05/23 06:39:49;;;;;;;3.65;2.20;;;;;;;20.27;60.41;98468.41;4941670;28;20027;-81
2022/05/23 06:42:15;;;;;;;3.25;2.03;;;;;;;20.28;59.93;98463.81;4958671;28;20035;-82
2022/05/23 06:44:40;;;;;;;4.15;1.95;;;;;;;20.25;60.56;98467.84;4941197;28;20122;-81
2022/05/23 06:47:05;;;;;;;3.03;1.65;;;;;;;20.30;59.99;98462.50;4940572;28;20069;-82
2022/05/23 06:49:31;;;;;;;5.53;2.10;;;;;;;20.30;61.17;98456.25;4942040;28;20035;-83
2022/05/23 06:51:56;;;;;;;3.55;1.98;;;;;;;20.30;60.61;98451.66;4975986;28;20029;-84
2022/05/23 06:54:22;;;;;;;2.40;1.77;;;;;;;20.35;60.20;98446.38;4949229;28;20055;-81
2022/05/23 06:56:48;;;;;;;2.90;1.58;;;;;;;20.39;60.79;98433.13;4934330;28;20058;-80
2022/05/23 06:59:15;;;;;;;4.05;1.80;;;;;;;20.40;61.49;98430.22;4959177;28;20031;-83
2022/05/23 07:01:41;;;;;;;3.33;2.10;;;;;;;20.44;60.58;98433.28;4959569;28;20125;-85
2022/05/23 07:04:06;;;;;;;4.53;1.98;;;;;;;20.51;61.76;98431.25;4940500;29;20174;-81
2022/05/23 07:14:43;;;;;;;2.55;1.58;;;;;;;20.54;60.56;98425.34;4975133;28;20045;-80
2022/05/23 07:17:09;;;;;;;2.65;1.77;;;;;;;20.54;60.74;98427.22;4942933;28;20117;-78
2022/05/23 07:19:35;;;;;;;3.50;1.92;;;;;;;20.46;60.18;98428.44;4955998;28;20041;-82
2022/05/23 07:22:02;;;;;;;4.43;1.92;;;;;;;20.49;61.00;98424.41;4971759;28;20392;-84
2022/05/23 07:24:28;;;;;;;3.42;2.10;;;;;;;20.41;61.80;98418.28;4940886;28;20139;-84
2022/05/23 07:26:54;;;;;;;3.50;1.98;;;;;;;20.36;62.48;98418.16;4937463;28;20125;-84
2022/05/23 07:29:22;;;;;;;5.68;2.00;;;;;;;20.36;61.81;98412.72;4952304;28;20110;-84
2022/05/23 07:31:48;;;;;;;5.15;1.98;;;;;;;20.36;62.10;98412.72;4937022;28;20031;-84
2022/05/23 07:34:13;;;;;;;4.97;2.20;;;;;;;20.35;63.51;98407.53;4933259;28;20358;-83
2022/05/23 07:36:38;;;;;;;5.93;2.30;;;;;;;20.30;62.96;98400.06;4957998;28;20532;-83
2022/05/23 07:39:04;;;;;;;3.25;1.80;;;;;;;20.40;63.06;98410.38;4956939;28;20038;-84
2022/05/23 07:41:29;;;;;;;3.92;2.15;;;;;;;20.47;63.10;98419.22;4958716;28;20026;-84
2022/05/23 07:43:54;;;;;;;2.50;2.22;;;;;;;20.48;63.27;98411.88;4942430;28;20045;-84
2022/05/23 07:46:20;;;;;;;5.20;2.55;;;;;;;20.52;63.43;98413.88;4958870;28;20110;-83
2022/05/23 07:48:48;;;;;;;3.47;2.40;;;;;;;20.55;62.94;98423.44;4939749;28;20027;-84
2022/05/23 07:51:15;;;;;;;3.85;1.92;;;;;;;20.61;63.91;98427.91;4958036;28;20023;-83
2022/05/23 08:01:54;;;;;;;4.88;2.60;;;;;;;20.62;63.42;98410.53;4953590;28;20034;-84
2022/05/23 08:04:19;;;;;;;3.30;2.40;;;;;;;20.64;63.10;98417.38;4937528;28;20031;-83
2022/05/23 08:06:45;;;;;;;3.55;2.22;;;;;;;20.68;63.26;98406.88;4934452;28;20426;-84
2022/05/23 08:09:10;;;;;;;3.47;2.22;;;;;;;20.70;62.75;98400.13;4931731;28;20569;-84
2022/05/23 08:11:40;;;;;;;5.65;2.33;;;;;;;20.69;62.69;98398.47;4955317;28;20054;-84
2022/05/23 08:14:06;;;;;;;5.18;2.30;;;;;;;20.74;62.64;98400.47;4952239;28;20134;-84
2022/05/23 08:16:31;;;;;;;4.72;2.47;;;;;;;20.77;62.48;98412.72;4954994;28;20546;-84
2022/05/23 08:18:58;;;;;;;2.97;2.00;;;;;;;20.81;62.48;98389.44;4938894;28;20018;-84
2022/05/23 08:21:25;;;;;;;3.03;2.20;;;;;;;20.86;62.49;98403.97;4938943;28;20106;-83
2022/05/23 08:23:51;;;;;;;4.82;2.25;;;;;;;20.89;62.77;98403.50;4955154;28;20116;-83
2022/05/23 08:26:16;;;;;;;4.13;2.22;;;;;;;20.91;62.89;98398.66;4937536;29;20057;-84
2022/05/23 08:28:42;;;;;;;1.90;1.70;;;;;;;20.92;61.95;98391.31;4924448;28;20027;-84
2022/05/23 08:31:07;;;;;;;2.65;1.80;;;;;;;20.95;62.21;98399.81;4955346;28;20101;-84
2022/05/23 08:33:33;;;;;;;2.88;1.80;;;;;;;20.97;62.37;98394.94;4939923;28;20027;-84
2022/05/23 08:35:58;;;;;;;3.90;1.92;;;;;;;20.96;61.62;98396.03;4938627;28;20481;-84
2022/05/23 08:38:23;;;;;;;4.50;1.60;;;;;;;20.99;62.25;98392.81;4932401;28;20026;-84
2022/05/23 08:41:00;;;;;;;3.80;1.88;;;;;;;21.04;61.97;98386.63;4956140;28;20018;-84
2022/05/23 08:43:39;;;;;;;3.67;1.90;;;;;;;21.10;62.00;98387.56;4955689;28;20026;-83
2022/05/23 08:46:04;;;;;;;;;;;;;;;21.11;61.57;98370.16;4934969;28;20493;-83
2022/05/23 08:48:57;;;;;;;5.97;1.75;;;;;;;21.14;61.01;98377.84;4954600;28;19918;-83
2022/05/23 08:51:33;;;;;;;4.65;1.60;;;;;;;21.13;61.01;98382.44;4947196;28;20115;-83
2022/05/23 08:54:03;;;;;;;4.85;1.60;;;;;;;21.14;61.59;98391.44;4953911;28;20449;-83
2022/05/23 08:56:40;;;;;;;3.35;1.65;;;;;;;21.17;61.71;98382.78;4955950;28;20061;-83
2022/05/23 08:59:17;;;;;;;3.25;1.30;;;;;;;21.18;60.15;98368.94;4939801;28;20034;-79
2022/05/23 09:01:53;;;;;;;2.20;1.38;;;;;;;21.15;59.75;98364.00;4953156;28;20060;-79
2022/05/23 09:04:29;;;;;;;3.75;1.58;;;;;;;21.13;59.52;98360.69;4955984;28;20358;-79
2022/05/23 09:06:56;;;;;;;2.50;1.55;;;;;;;21.10;59.23;98355.75;4938538;28;20148;-79
2022/05/23 09:09:22;;;;;;;3.80;1.80;;;;;;;21.10;59.49;98350.31;4953744;28;20113;-81
2022/05/23 09:12:02;;;;;;;2.45;1.35;;;;;;;21.10;59.28;98338.63;4973276;28;20110;-79
2022/05/23 09:14:28;;;;;;;2.60;1.48;;;;;;;21.15;59.25;98333.28;4931053;28;20031;-83
2022/05/23 09:16:55;;;;;;;4.10;1.55;;;;;;;21.18;59.94;98327.34;4955623;28;20065;-86
2022/05/23 09:19:34;;;;;;;3.08;1.52;;;;;;;21.20;59.67;98322.47;4938615;28;20034;-86
2022/05/23 09:22:15;;;;;;;3.33;1.50;;;;;;;21.20;59.89;98317.84;4939197;28;20073;-85
2022/05/23 09:24:44;;;;;;;5.85;1.88;;;;;;;21.20;59.19;98322.47;4950231;28;20449;-85
2022/05/23 09:27:20;;;;;;;2.75;1.48;;;;;;;21.21;59.95;98314.06;4972392;28;20482;-86
2022/05/23 09:29:55;;;;;;;3.47;1.80;;;;;;;21.23;59.52;98308.41;4955668;28;20039;-87
2022/05/23 09:32:29;;;;;;;3.75;1.48;;;;;;;21.25;60.34;98300.84;4940191;28;20034;-86
2022/05/23 09:34:57;;;;;;;4.15;1.58;;;;;;;21.26;59.88;98295.16;4940866;28;20034;-86
2022/05/23 09:37:35;;;;;;;;;;;;;;;21.28;60.54;98295.72;4937999;28;20504;-88
2022/05/23 09:40:03;;;;;;;1.52;1.10;;;;;;;21.33;60.27;98289.56;4951184;28;20021;-86
2022/05/23 09:48:14;;;;;;;3.55;2.10;;;;;;;21.40;59.54;98279.34;4971845;28;20216;-77
2022/05/23 09:50:43;;;;;;;4.70;2.00;;;;;;;21.47;59.75;98258.22;4969628;28;20038;-76
2022/05/23 09:53:44;;;;;;;4.63;2.45;;;;;;;21.53;60.90;98257.22;4943912;28;20027;-77
2022/05/23 09:56:32;;;;;;;2.97;1.80;;;;;;;21.50;61.46;98265.06;4951754;28;20078;-76
2022/05/23 09:59:00;;;;;;;3.55;2.00;;;;;;;21.50;61.20;98263.16;4944979;28;20034;-76
2022/05/23 10:01:31;;;;;;;3.67;2.22;;;;;;;21.54;60.70;98256.16;4938858;28;20053;-76
2022/05/23 10:03:57;;;;;;;4.85;2.30;;;;;;;21.58;61.74;98251.03;4956297;28;20449;-76
2022/05/23 10:06:34;;;;;;;4.43;2.40;;;;;;;21.57;60.81;98246.66;4975615;28;20050;-76
2022/05/23 10:08:59;;;;;;;2.95;2.00;;;;;;;21.54;61.03;98236.28;4955728;28;20031;-77
2022/05/23 10:11:31;;;;;;;2.30;1.75;;;;;;;21.56;62.08;98239.56;4959243;28;20034;-76
2022/05/23 10:13:58;;;;;;;3.92;1.75;;;;;;;21.56;62.71;98239.56;4977474;28;20029;-76
2022/05/23 10:16:27;;;;;;;3.95;2.20;;;;;;;21.56;61.66;98231.41;4977732;28;20031;-76
2022/05/23 10:19:01;;;;;;;1.77;1.52;;;;;;;21.53;62.62;98227.28;4977231;28;20034;-76
2022/05/23 10:21:28;;;;;;;3.88;1.70;;;;;;;21.55;62.60;98224.31;4944499;28;20022;-76
2022/05/23 10:24:20;;;;;;;3.60;1.80;;;;;;;21.55;61.60;98222.41;4977062;28;20516;-76
2022/05/23 10:26:55;;;;;;;4.32;2.00;;;;;;;21.53;62.80;98219.13;4960571;28;20053;-76
2022/05/23 10:29:29;;;;;;;5.53;1.95;;;;;;;21.53;62.45;98213.69;4959901;28;20117;-76
2022/05/23 10:32:09;;;;;;;3.63;1.90;;;;;;;21.56;63.47;98220.53;4969208;28;20031;-76
2022/05/23 10:34:43;;;;;;;2.92;1.65;;;;;;;21.59;63.56;98220.03;4965684;28;20057;-76
2022/05/23 10:37:28;;;;;;;4.85;2.40;;;;;;;21.66;62.90;98204.31;4960322;28;20034;-76
2022/05/23 10:42:44;;;;;;;6.55;2.70;;;;;;;21.80;62.76;98188.47;4982714;28;20085;-76
2022/05/23 10:45:12;;;;;;;3.53;1.83;;;;;;;21.79;63.31;98184.91;4977030;28;20105;-76
2022/05/23 10:47:49;;;;;;;3.25;2.20;;;;;;;21.83;63.33;98169.72;4963319;28;20480;-76
2022/05/23 10:50:20;;;;;;;4.47;2.08;;;;;;;21.83;63.65;98166.19;4969802;28;20061;-76
2022/05/23 10:52:53;;;;;;;4.15;2.20;;;;;;;21.86;63.53;98162.94;4960015;28;20049;-76
2022/05/23 10:55:26;;;;;;;5.72;2.47;;;;;;;21.96;63.15;98154.91;4977346;28;20031;-76
2022/05/23 10:58:42;;;;;;;3.13;1.98;;;;;;;21.98;63.65;98147.28;4959675;28;20058;-76
2022/05/23 11:01:39;;;;;;;3.80;2.13;;;;;;;21.98;63.90;98150.84;4949279;28;20161;-76
2022/05/23 11:04:43;;;;;;;6.13;2.70;;;;;;;22.14;63.57;98151.84;4973344;28;20023;-76
2022/05/23 11:07:24;;;;;;;5.50;2.78;;;;;;;22.11;64.19;98138.75;4974632;28;20055;-76
2022/05/23 11:10:06;;;;;;;2.97;2.00;;;;;;;22.09;63.45;98129.19;4974394;28;20027;-76
2022/05/23 11:13:06;;;;;;;2.63;2.00;;;;;;;22.07;63.54;98123.19;4965437;28;20056;-75
2022/05/23 11:15:43;;;;;;;6.53;2.08;;;;;;;22.09;63.62;98121.00;4932385;29;20126;-75
2022/05/23 11:18:34;;;;;;;2.88;1.92;;;;;;;22.14;63.93;98135.50;4955180;28;20158;-76
2022/05/23 11:21:08;;;;;;;4.28;1.85;;;;;;;22.20;63.78;98125.47;4953516;28;20030;-76
2022/05/23 11:23:41;;;;;;;3.92;1.75;;;;;;;22.20;63.40;98120.84;4929092;28;20039;-76
2022/05/23 11:26:18;;;;;;;3.22;1.85;;;;;;;22.21;63.33;98133.38;4952841;28;20035;-76
2022/05/23 11:34:51;;;;;;;5.22;2.20;;;;;;;22.36;63.71;98131.91;4960607;28;20033;-76
2022/05/23 11:39:49;;;;;;;3.58;2.20;;;;;;;22.41;62.78;98129.22;4958162;28;20121;-77
2022/05/23 11:42:24;;;;;;;4.07;2.03;;;;;;;22.36;62.65;98129.19;4957843;28;20392;-74
2022/05/23 11:44:49;;;;;;;3.47;1.75;;;;;;;22.34;62.79;98132.16;4955190;28;20031;-74
2022/05/23 11:47:21;;;;;;;5.25;2.10;;;;;;;22.36;62.70;98126.47;4973953;28;20027;-74
2022/05/23 11:50:02;;;;;;;4.53;2.00;;;;;;;22.36;62.83;98137.34;4974279;28;20485;-74
2022/05/23 11:52:35;;;;;;;3.97;2.47;;;;;;;22.33;63.58;98126.97;4955708;28;20094;-74
2022/05/23 11:55:01;;;;;;;3.42;2.20;;;;;;;22.32;63.18;98133.50;4930255;28;20441;-76
2022/05/23 11:57:38;;;;;;;3.67;2.15;;;;;;;22.30;62.93;98131.88;4944132;28;20027;-75
2022/05/23 12:00:08;;;;;;;3.40;2.35;;;;;;;22.28;63.47;98133.22;4972977;28;20401;-74
2022/05/23 12:02:38;;;;;;;5.28;2.50;;;;;;;22.28;63.66;98135.94;4973925;28;20027;-75
2022/05/23 12:05:09;;;;;;;4.80;2.60;;;;;;;22.27;63.28;98134.28;4955976;28;20374;-75
2022/05/23 12:07:34;;;;;;;2.45;2.00;;;;;;;22.27;63.32;98139.72;4971022;28;20089;-76
2022/05/23 12:10:22;;;;;;;4.93;2.40;;;;;;;22.24;63.67;98127.44;4973373;28;20098;-75
2022/05/23 12:13:24;;;;;;;4.30;2.45;;;;;;;22.24;63.95;98126.63;4971979;28;20516;-75
2022/05/23 12:15:53;;;;;;;2.95;2.20;;;;;;;22.23;63.69;98133.13;4968266;28;20400;-75
2022/05/23 12:18:21;;;;;;;6.68;2.40;;;;;;;22.20;63.28;98123.56;4940167;28;20019;-75
2022/05/23 12:20:48;;;;;;;3.63;2.03;;;;;;;22.19;64.70;98116.47;4974766;28;20127;-75
2022/05/23 12:23:19;;;;;;;5.07;2.35;;;;;;;22.19;64.48;98121.94;4957546;28;20122;-75
2022/05/23 12:26:24;;;;;;;3.28;2.13;;;;;;;22.19;64.80;98119.22;4941615;28;20035;-75
2022/05/23 12:28:56;;;;;;;5.00;2.30;;;;;;;22.18;64.93;98116.75;4976836;28;20354;-75
2022/05/23 12:31:25;;;;;;;4.22;2.40;;;;;;;22.18;64.66;98125.72;4939304;28;20479;-76
2022/05/23 12:34:02;;;;;;;2.60;2.40;;;;;;;22.18;64.99;98131.19;4945208;28;20037;-75
2022/05/23 12:36:29;;;;;;;4.85;2.80;;;;;;;22.19;65.96;98138.28;4975160;28;20098;-75
2022/05/23 12:39:03;;;;;;;4.90;2.63;;;;;;;22.19;66.61;98143.72;4939885;28;20023;-76
2022/05/23 12:41:47;;;;;;;7.60;2.40;;;;;;;22.19;67.10;98142.91;4939441;28;20027;-75
2022/05/23 12:44:33;;;;;;;5.28;2.70;;;;;;;22.15;66.79;98148.03;4956759;28;20109;-75
2022/05/23 12:47:07;;;;;;;3.92;2.17;;;;;;;22.12;66.19;98137.66;4956869;28;20038;-75